createdAt,value
2022-07-30T00:00:24.778Z,20.36
2022-07-30T00:03:15.343Z,20.42
2022-07-30T00:05:57.311Z,20.36
2022-07-30T00:08:45.269Z,20.35
2022-07-30T00:11:29.408Z,20.32
2022-07-30T00:14:19.880Z,20.43
2022-07-30T00:17:01.338Z,20.34
2022-07-30T00:19:48.354Z,20.40
2022-07-30T00:22:29.538Z,20.28
2022-07-30T00:25:21.768Z,20.21
2022-07-30T00:28:02.198Z,20.09
2022-07-30T00:30:54.926Z,20.06
2022-07-30T00:33:38.299Z,20.15
2022-07-30T00:36:27.498Z,20.13
2022-07-30T00:39:10.455Z,20.07
2022-07-30T00:42:07.291Z,20.13
2022-07-30T00:45:04.005Z,20.08
2022-07-30T00:47:51.776Z,20.04
2022-07-30T00:50:32.179Z,20.01
2022-07-30T00:53:19.275Z,20.03
2022-07-30T00:56:01.231Z,19.99
2022-07-30T00:58:48.318Z,19.96
2022-07-30T01:01:29.184Z,19.99
2022-07-30T01:04:17.380Z,19.91
2022-07-30T01:06:58.554Z,19.91
2022-07-30T01:09:48.557Z,19.85
2022-07-30T01:12:33.284Z,19.95
2022-07-30T01:15:20.294Z,19.90
2022-07-30T01:18:04.220Z,19.94
2022-07-30T01:21:04.361Z,19.82
2022-07-30T01:23:48.499Z,19.81
2022-07-30T01:26:37.323Z,19.73
2022-07-30T01:29:20.605Z,19.85
2022-07-30T01:32:15.147Z,19.88
2022-07-30T01:34:57.187Z,19.89
2022-07-30T01:37:45.601Z,19.88
2022-07-30T01:40:28.611Z,19.70
2022-07-30T01:43:17.092Z,19.70
2022-07-30T01:46:07.410Z,19.62
2022-07-30T01:48:50.417Z,19.56
2022-07-30T01:51:39.203Z,19.63
2022-07-30T01:54:21.923Z,19.70
2022-07-30T01:57:13.169Z,19.52
2022-07-30T01:59:58.333Z,19.57
2022-07-30T02:02:57.679Z,19.62
2022-07-30T02:05:41.751Z,19.57
2022-07-30T02:08:43.816Z,19.49
2022-07-30T02:11:44.879Z,19.50
2022-07-30T02:14:38.380Z,19.32
2022-07-30T02:17:30.056Z,19.38
2022-07-30T02:20:20.216Z,19.42
2022-07-30T02:23:13.334Z,19.35
2022-07-30T02:26:04.254Z,19.32
2022-07-30T02:28:51.498Z,19.19
2022-07-30T02:31:42.252Z,19.16
2022-07-30T02:34:26.391Z,19.14
2022-07-30T02:37:21.107Z,19.14
2022-07-30T02:40:26.141Z,19.07
2022-07-30T02:43:15.629Z,19.05
2022-07-30T02:46:04.354Z,19.04
2022-07-30T02:49:05.326Z,19.09
2022-07-30T02:51:56.416Z,19.09
2022-07-30T02:54:39.282Z,19.14
2022-07-30T02:57:28.385Z,19.16
2022-07-30T03:00:11.265Z,19.22
2022-07-30T03:03:02.180Z,19.28
2022-07-30T03:05:46.533Z,19.23
2022-07-30T03:08:35.370Z,19.28
2022-07-30T03:11:18.253Z,19.24
2022-07-30T03:14:11.206Z,19.33
2022-07-30T03:16:58.460Z,19.25
2022-07-30T03:19:48.869Z,19.25
2022-07-30T03:22:35.829Z,19.37
2022-07-30T03:25:29.647Z,19.35
2022-07-30T03:28:12.260Z,19.39
2022-07-30T03:31:01.730Z,19.37
2022-07-30T03:33:46.673Z,19.52
2022-07-30T03:36:36.839Z,19.52
2022-07-30T03:39:18.870Z,19.34
2022-07-30T03:42:07.436Z,19.54
2022-07-30T03:44:57.804Z,19.39
2022-07-30T03:47:42.125Z,19.36
2022-07-30T03:50:29.327Z,19.22
2022-07-30T03:53:11.470Z,19.54
2022-07-30T03:56:28.419Z,19.37
2022-07-30T03:59:29.465Z,19.37
2022-07-30T04:02:17.353Z,19.17
2022-07-30T04:05:11.439Z,19.11
2022-07-30T04:08:01.363Z,19.12
2022-07-30T04:10:44.834Z,19.14
2022-07-30T04:13:57.359Z,18.98
2022-07-30T04:17:06.460Z,18.91
2022-07-30T04:20:00.317Z,19.07
2022-07-30T04:22:44.483Z,18.98
2022-07-30T04:25:33.114Z,19.02
2022-07-30T04:28:17.425Z,18.98
2022-07-30T04:31:05.921Z,18.95
2022-07-30T04:33:48.044Z,19.01
2022-07-30T04:36:45.282Z,18.94
2022-07-30T04:39:26.663Z,18.91
2022-07-30T04:42:16.450Z,18.92
2022-07-30T04:45:21.315Z,18.85
2022-07-30T04:48:11.311Z,19.00
2022-07-30T04:51:20.451Z,18.97
2022-07-30T04:54:16.294Z,18.99
2022-07-30T04:56:58.579Z,18.99
2022-07-30T04:59:46.321Z,19.11
2022-07-30T05:02:32.420Z,19.36
2022-07-30T05:05:23.514Z,19.73
2022-07-30T05:08:06.623Z,20.14
2022-07-30T05:10:58.875Z,20.67
2022-07-30T05:13:39.457Z,21.13
2022-07-30T05:16:31.393Z,21.61
2022-07-30T05:19:12.506Z,22.11
2022-07-30T05:22:04.679Z,22.55
2022-07-30T05:24:48.845Z,22.98
2022-07-30T05:27:41.350Z,23.33
2022-07-30T05:30:27.511Z,23.70
2022-07-30T05:33:15.785Z,24.04
2022-07-30T05:36:00.214Z,24.28
2022-07-30T05:38:57.726Z,24.61
2022-07-30T05:41:44.806Z,24.79
2022-07-30T05:44:36.347Z,24.97
2022-07-30T05:47:20.960Z,25.13
2022-07-30T05:50:10.381Z,25.59
2022-07-30T05:52:51.691Z,26.07
2022-07-30T05:56:06.743Z,26.73
2022-07-30T05:59:22.491Z,27.45
2022-07-30T06:02:15.385Z,28.01
2022-07-30T06:05:00.749Z,28.40
2022-07-30T06:07:47.375Z,28.64
2022-07-30T06:10:31.230Z,28.81
2022-07-30T06:13:20.353Z,29.03
2022-07-30T06:16:01.550Z,29.40
2022-07-30T06:18:52.399Z,29.84
2022-07-30T06:22:06.372Z,30.31
2022-07-30T06:24:58.742Z,30.92
2022-07-30T06:27:39.958Z,31.44
2022-07-30T06:30:30.591Z,32.09
2022-07-30T06:33:14.472Z,32.76
2022-07-30T06:36:03.158Z,32.99
2022-07-30T06:38:55.918Z,33.46
2022-07-30T06:42:04.565Z,34.07
2022-07-30T06:45:30.529Z,34.42
2022-07-30T06:48:24.781Z,34.77
2022-07-30T06:51:16.025Z,34.27
2022-07-30T06:53:57.166Z,34.64
2022-07-30T06:56:43.859Z,34.30
2022-07-30T06:59:31.397Z,33.99
2022-07-30T07:02:26.239Z,33.38
2022-07-30T07:05:25.409Z,32.92
2022-07-30T07:08:13.538Z,32.98
2022-07-30T07:10:58.807Z,33.72
2022-07-30T07:13:48.198Z,34.39
2022-07-30T07:16:50.277Z,34.46
2022-07-30T07:20:02.618Z,34.10
2022-07-30T07:22:58.449Z,33.78
2022-07-30T07:25:48.513Z,33.48
2022-07-30T07:28:33.352Z,32.97
2022-07-30T07:32:07.071Z,32.72
2022-07-30T07:34:24.903Z,33.31
2022-07-30T07:37:16.804Z,33.90
2022-07-30T07:39:58.445Z,34.58
2022-07-30T07:43:04.417Z,35.27
2022-07-30T07:46:01.195Z,35.68
2022-07-30T07:48:51.862Z,35.87
2022-07-30T07:51:48.168Z,36.00
2022-07-30T07:54:40.343Z,36.12
2022-07-30T07:57:21.913Z,36.15
2022-07-30T08:00:12.819Z,36.35
2022-07-30T08:02:54.539Z,36.76
2022-07-30T08:05:58.118Z,36.71
2022-07-30T08:09:08.431Z,36.39
2022-07-30T08:12:09.881Z,36.75
2022-07-30T08:15:04.439Z,36.98
2022-07-30T08:18:04.003Z,37.04
2022-07-30T08:21:23.741Z,36.83
2022-07-30T08:24:14.544Z,36.43
2022-07-30T08:26:55.452Z,35.79
2022-07-30T08:29:42.625Z,35.25
2022-07-30T08:32:23.522Z,35.68
2022-07-30T08:35:15.304Z,36.24
2022-07-30T08:37:57.595Z,36.70
2022-07-30T08:40:46.759Z,37.04
2022-07-30T08:43:32.633Z,37.26
2022-07-30T08:46:25.492Z,37.53
2022-07-30T08:49:22.479Z,37.51
2022-07-30T08:52:12.622Z,37.60
2022-07-30T08:55:03.234Z,37.67
2022-07-30T08:57:56.646Z,37.82
2022-07-30T09:00:38.842Z,37.73
2022-07-30T09:03:26.572Z,37.59
2022-07-30T09:06:11.263Z,37.54
2022-07-30T09:09:01.455Z,37.40
2022-07-30T09:11:43.529Z,37.50
2022-07-30T09:14:31.584Z,37.33
2022-07-30T09:17:14.295Z,36.47
2022-07-30T09:20:10.661Z,36.00
2022-07-30T09:22:55.472Z,35.77
2022-07-30T09:25:57.078Z,35.85
2022-07-30T09:28:59.479Z,36.12
2022-07-30T09:32:06.076Z,36.14
2022-07-30T09:35:27.883Z,36.06
2022-07-30T09:38:49.099Z,36.14
2022-07-30T09:42:04.116Z,36.43
2022-07-30T09:44:58.612Z,36.68
2022-07-30T09:47:50.243Z,36.72
2022-07-30T09:50:31.682Z,36.67
2022-07-30T09:53:19.554Z,36.73
2022-07-30T09:56:02.673Z,36.64
2022-07-30T09:58:52.288Z,36.62
2022-07-30T10:01:49.746Z,36.52
2022-07-30T10:05:20.904Z,35.44
2022-07-30T10:08:09.504Z,34.44
2022-07-30T10:11:08.414Z,34.42
2022-07-30T10:13:49.993Z,34.68
2022-07-30T10:16:37.905Z,34.39
2022-07-30T10:19:23.520Z,34.43
2022-07-30T10:22:48.066Z,34.62
2022-07-30T10:26:08.081Z,34.76
2022-07-30T10:28:58.537Z,34.88
2022-07-30T10:31:49.363Z,35.00
2022-07-30T10:34:42.459Z,34.98
2022-07-30T10:37:24.130Z,35.07
2022-07-30T10:40:30.690Z,34.17
2022-07-30T10:43:31.574Z,33.97
2022-07-30T10:46:57.303Z,34.16
2022-07-30T10:49:41.890Z,34.38
2022-07-30T10:52:56.577Z,34.46
2022-07-30T10:55:41.672Z,34.41
2022-07-30T10:58:29.990Z,34.37
2022-07-30T11:01:18.837Z,34.40
2022-07-30T11:04:33.629Z,34.39
2022-07-30T11:07:31.569Z,34.55
2022-07-30T11:10:43.833Z,34.63
2022-07-30T11:13:25.427Z,34.50
2022-07-30T11:16:14.339Z,34.24
2022-07-30T11:19:56.620Z,33.68
2022-07-30T11:22:51.040Z,33.85
2022-07-30T11:25:50.093Z,33.90
2022-07-30T11:28:43.957Z,33.79
2022-07-30T11:31:56.832Z,33.95
2022-07-30T11:34:51.601Z,34.01
2022-07-30T11:37:33.072Z,33.99
2022-07-30T11:40:26.478Z,33.97
2022-07-30T11:43:34.850Z,34.04
2022-07-30T11:46:30.020Z,33.63
2022-07-30T11:49:15.731Z,33.47
2022-07-30T11:52:04.140Z,33.48
2022-07-30T11:54:59.890Z,33.38
2022-07-30T11:57:49.732Z,33.32
2022-07-30T12:00:31.635Z,33.51
2022-07-30T12:03:21.583Z,33.50
2022-07-30T12:06:02.712Z,32.87
2022-07-30T12:08:58.523Z,32.20
2022-07-30T12:11:43.752Z,31.91
2022-07-30T12:14:31.817Z,32.07
2022-07-30T12:17:14.895Z,32.17
2022-07-30T12:20:04.119Z,32.28
2022-07-30T12:22:47.415Z,32.52
2022-07-30T12:25:36.352Z,32.67
2022-07-30T12:28:18.761Z,32.76
2022-07-30T12:31:11.000Z,32.88
2022-07-30T12:33:51.889Z,32.95
2022-07-30T12:36:44.252Z,32.99
2022-07-30T12:39:29.745Z,33.05
2022-07-30T12:42:27.636Z,32.82
2022-07-30T12:45:50.447Z,32.87
2022-07-30T12:48:38.670Z,33.04
2022-07-30T12:51:19.858Z,33.11
2022-07-30T12:54:22.641Z,33.13
2022-07-30T12:57:06.373Z,33.27
2022-07-30T13:00:07.381Z,33.39
2022-07-30T13:02:48.739Z,33.17
2022-07-30T13:05:58.637Z,33.12
2022-07-30T13:08:55.107Z,33.02
2022-07-30T13:11:49.668Z,32.69
2022-07-30T13:14:30.754Z,32.54
2022-07-30T13:19:43.752Z,32.60
2022-07-30T13:22:32.016Z,32.45
2022-07-30T13:25:13.382Z,32.31
2022-07-30T13:28:00.867Z,32.07
2022-07-30T13:30:41.760Z,31.98
2022-07-30T13:33:28.906Z,31.96
2022-07-30T13:36:09.788Z,31.92
2022-07-30T13:38:57.911Z,31.85
2022-07-30T13:41:41.614Z,31.84
2022-07-30T13:44:28.940Z,31.69
2022-07-30T13:47:11.174Z,31.57
2022-07-30T13:49:58.912Z,31.39
2022-07-30T13:52:40.519Z,31.21
2022-07-30T13:55:29.919Z,31.04
2022-07-30T13:58:11.247Z,31.16
2022-07-30T14:00:58.113Z,31.18
2022-07-30T14:03:39.217Z,31.43
2022-07-30T14:06:26.914Z,31.56
2022-07-30T14:09:08.148Z,31.72
2022-07-30T14:11:55.891Z,31.79
2022-07-30T14:14:39.276Z,31.72
2022-07-30T14:17:33.808Z,31.69
2022-07-30T14:20:20.781Z,31.39
2022-07-30T14:23:01.919Z,31.30
2022-07-30T14:25:51.556Z,31.25
2022-07-30T14:28:33.366Z,31.30
2022-07-30T14:31:20.569Z,31.30
2022-07-30T14:34:01.919Z,31.15
2022-07-30T14:36:51.642Z,30.89
2022-07-30T14:39:33.104Z,30.64
2022-07-30T14:42:20.577Z,30.35
2022-07-30T14:45:02.005Z,30.14
2022-07-30T14:47:51.961Z,30.21
2022-07-30T14:50:39.414Z,30.22
2022-07-30T14:53:39.867Z,30.17
2022-07-30T14:56:22.253Z,30.32
2022-07-30T14:59:11.346Z,30.46
2022-07-30T15:01:53.129Z,30.62
2022-07-30T15:04:40.805Z,30.66
2022-07-30T15:07:22.055Z,30.58
2022-07-30T15:10:10.834Z,30.69
2022-07-30T15:12:56.246Z,30.80
2022-07-30T15:15:44.541Z,30.89
2022-07-30T15:18:39.808Z,30.93
2022-07-30T15:21:29.266Z,30.83
2022-07-30T15:24:10.816Z,30.90
2022-07-30T15:26:57.943Z,31.00
2022-07-30T15:29:38.951Z,31.04
2022-07-30T15:32:26.827Z,31.13
2022-07-30T15:35:13.848Z,31.08
2022-07-30T15:38:01.301Z,31.12
2022-07-30T15:40:42.409Z,31.16
2022-07-30T15:43:30.229Z,31.08
2022-07-30T15:46:15.003Z,30.97
2022-07-30T15:49:04.960Z,30.96
2022-07-30T15:51:48.988Z,30.86
2022-07-30T15:54:36.961Z,30.48
2022-07-30T15:57:19.337Z,30.17
2022-07-30T16:00:06.245Z,29.92
2022-07-30T16:02:50.542Z,29.73
2022-07-30T16:05:52.555Z,29.56
2022-07-30T16:08:41.971Z,29.52
2022-07-30T16:11:22.873Z,29.52
2022-07-30T16:14:10.999Z,29.53
2022-07-30T16:16:51.874Z,29.41
2022-07-30T16:19:47.879Z,29.48
2022-07-30T16:22:35.258Z,29.59
2022-07-30T16:25:17.095Z,29.52
2022-07-30T16:28:06.055Z,29.61
2022-07-30T16:30:51.212Z,29.55
2022-07-30T16:33:40.873Z,29.35
2022-07-30T16:36:21.983Z,29.22
2022-07-30T16:39:10.889Z,29.01
2022-07-30T16:41:52.896Z,28.84
2022-07-30T16:44:42.236Z,28.61
2022-07-30T16:47:23.338Z,28.27
2022-07-30T16:50:10.724Z,28.12
2022-07-30T16:52:52.537Z,27.59
2022-07-30T16:55:39.882Z,27.48
2022-07-30T16:58:21.363Z,27.59
2022-07-30T17:01:14.925Z,27.33
2022-07-30T17:03:56.813Z,27.34
2022-07-30T17:06:46.894Z,27.33
2022-07-30T17:09:28.037Z,27.36
2022-07-30T17:12:23.943Z,27.26
2022-07-30T17:15:07.470Z,27.15
2022-07-30T17:17:56.653Z,27.19
2022-07-30T17:20:45.010Z,27.21
2022-07-30T17:23:26.888Z,27.19
2022-07-30T17:26:14.668Z,27.12
2022-07-30T17:28:56.668Z,27.06
2022-07-30T17:31:45.046Z,27.14
2022-07-30T17:34:28.909Z,27.04
2022-07-30T17:37:18.429Z,26.94
2022-07-30T17:40:26.446Z,26.93
2022-07-30T17:43:14.021Z,26.80
2022-07-30T17:45:54.922Z,26.63
2022-07-30T17:48:42.039Z,26.65
2022-07-30T17:51:24.692Z,26.68
2022-07-30T17:54:14.043Z,26.63
2022-07-30T17:56:55.937Z,26.66
2022-07-30T17:59:43.849Z,26.61
2022-07-30T18:02:27.473Z,26.72
2022-07-30T18:05:18.103Z,26.74
2022-07-30T18:07:59.291Z,26.76
2022-07-30T18:10:47.643Z,26.71
2022-07-30T18:13:29.065Z,26.82
2022-07-30T18:16:19.067Z,26.72
2022-07-30T18:19:22.772Z,26.73
2022-07-30T18:22:15.267Z,26.56
2022-07-30T18:24:56.336Z,26.50
2022-07-30T18:27:44.071Z,26.41
2022-07-30T18:30:25.769Z,26.11
2022-07-30T18:33:16.297Z,26.11
2022-07-30T18:35:56.951Z,25.91
2022-07-30T18:38:49.705Z,25.81
2022-07-30T18:41:33.956Z,25.81
2022-07-30T18:44:25.080Z,25.75
2022-07-30T18:47:06.338Z,25.64
2022-07-30T18:49:56.096Z,25.54
2022-07-30T18:52:37.975Z,25.46
2022-07-30T18:55:25.334Z,25.32
2022-07-30T18:58:05.983Z,25.22
2022-07-30T19:00:54.172Z,25.12
2022-07-30T19:03:35.382Z,25.07
2022-07-30T19:06:23.450Z,24.70
2022-07-30T19:09:05.385Z,24.71
2022-07-30T19:11:53.202Z,24.67
2022-07-30T19:14:33.975Z,24.62
2022-07-30T19:17:22.622Z,24.48
2022-07-30T19:20:31.739Z,24.39
2022-07-30T19:23:16.499Z,24.32
2022-07-30T19:26:05.191Z,24.21
2022-07-30T19:28:46.563Z,24.14
2022-07-30T19:31:34.351Z,23.99
2022-07-30T19:34:15.116Z,23.92
2022-07-30T19:37:03.875Z,23.82
2022-07-30T19:40:05.624Z,23.86
2022-07-30T19:45:58.594Z,23.54
2022-07-30T19:48:48.423Z,23.57
2022-07-30T19:52:07.282Z,23.34
2022-07-30T19:54:37.992Z,23.23
2022-07-30T20:00:29.003Z,23.14
2022-07-30T20:03:14.618Z,23.06
2022-07-30T20:06:03.120Z,23.14
2022-07-30T20:08:46.201Z,23.00
2022-07-30T20:11:36.607Z,22.98
2022-07-30T20:14:17.730Z,22.74
2022-07-30T20:17:05.467Z,22.77
2022-07-30T20:20:02.043Z,22.73
2022-07-30T20:22:52.111Z,22.67
2022-07-30T20:25:37.355Z,22.64
2022-07-30T20:28:25.992Z,22.44
2022-07-30T20:31:07.171Z,22.58
2022-07-30T20:33:55.796Z,22.68
2022-07-30T20:36:37.600Z,22.46
2022-07-30T20:39:26.046Z,22.56
2022-07-30T20:42:14.033Z,22.59
2022-07-30T20:45:04.763Z,22.50
2022-07-30T20:47:52.324Z,22.35
2022-07-30T20:50:40.782Z,22.20
2022-07-30T20:53:23.166Z,22.18
2022-07-30T20:56:11.026Z,22.07
2022-07-30T20:58:54.807Z,22.28
2022-07-30T21:01:44.582Z,22.31
2022-07-30T21:04:25.860Z,22.22
2022-07-30T21:07:20.569Z,22.22
2022-07-30T21:10:02.899Z,22.00
2022-07-30T21:12:53.037Z,21.78
2022-07-30T21:15:45.601Z,21.83
2022-07-30T21:18:53.348Z,21.87
2022-07-30T21:21:48.158Z,21.63
2022-07-30T21:24:31.028Z,21.45
2022-07-30T21:27:20.567Z,21.41
2022-07-30T21:30:01.807Z,21.81
2022-07-30T21:32:50.588Z,21.70
2022-07-30T21:35:32.475Z,21.62
2022-07-30T21:38:20.164Z,21.90
2022-07-30T21:41:04.804Z,22.04
2022-07-30T21:44:00.117Z,21.96
2022-07-30T21:46:41.817Z,21.76
2022-07-30T21:49:29.243Z,21.70
2022-07-30T21:52:13.437Z,21.44
2022-07-30T21:55:04.836Z,21.35
2022-07-30T21:57:46.101Z,21.33
2022-07-30T22:00:55.062Z,21.22
2022-07-30T22:04:04.311Z,21.26
2022-07-30T22:06:49.359Z,21.43
2022-07-30T22:09:34.192Z,21.37
2022-07-30T22:12:21.383Z,21.39
2022-07-30T22:15:08.061Z,21.41
2022-07-30T22:17:58.655Z,21.39
2022-07-30T22:20:52.081Z,21.37
2022-07-30T22:23:33.192Z,21.43
2022-07-30T22:26:22.218Z,21.45
2022-07-30T22:29:09.712Z,21.21
2022-07-30T22:31:59.086Z,21.28
2022-07-30T22:34:40.174Z,21.26
2022-07-30T22:37:34.043Z,21.40
2022-07-30T22:40:16.604Z,21.21
2022-07-30T22:43:07.625Z,21.16
2022-07-30T22:45:50.158Z,21.11
2022-07-30T22:48:40.230Z,21.08
2022-07-30T22:51:21.412Z,21.27
2022-07-30T22:54:13.336Z,21.29
2022-07-30T22:56:54.332Z,21.40
2022-07-30T22:59:58.682Z,21.34
2022-07-30T23:02:41.276Z,21.19
2022-07-30T23:05:30.129Z,21.18
2022-07-30T23:08:16.718Z,21.10
2022-07-30T23:11:20.002Z,21.07
2022-07-30T23:12:15.501Z,23.19
2022-07-30T23:12:16.670Z,23.72
2022-07-30T23:14:02.404Z,20.98
2022-07-30T23:16:51.260Z,21.11
2022-07-30T23:19:46.118Z,21.32
2022-07-30T23:22:33.516Z,21.21
2022-07-30T23:25:16.231Z,20.96
2022-07-30T23:28:04.092Z,21.03
2022-07-30T23:30:45.255Z,21.23
2022-07-30T23:33:32.120Z,21.21
2022-07-30T23:36:16.066Z,21.25
2022-07-30T23:39:06.427Z,21.16
2022-07-30T23:41:47.250Z,21.16
2022-07-30T23:44:37.175Z,21.22
2022-07-30T23:47:19.781Z,21.14
2022-07-30T23:50:27.628Z,21.18
2022-07-30T23:53:10.232Z,21.19
2022-07-30T23:55:59.465Z,21.21
2022-07-30T23:58:42.431Z,21.11
